Terminal Aerodrome Forecast
Issued by NWS Shreveport, LA

Home | Current Version | Previous Version | Text Only | Print | Product List | Glossary On
Versions: 1 2 3 4 5 6 7 8 9 10 11 12 13 14 15 16 17 18
597
FTUS44 KSHV 222040 AAA
TAFSHV
TAF AMD
KSHV 222040Z 2221/2318 29015G25KT P6SM VCSH BKN035 OVC060
      TEMPO 2221/2224 31020G35KT 5SM -SHRA BR OVC030
     FM230000 31020G35KT P6SM VCSH BKN030 BKN080
      TEMPO 2300/2303 SCT030 OVC050
     FM230300 31018G28KT P6SM SCT050
     FM230600 32014G21KT P6SM SKC
     FM231200 31010KT P6SM SKC=

USA.gov is the U.S. government's official web portal to all federal, state and local government web resources and services.